Boyd Deep Canyon Reserve, California Weather observations

Data are for 10 minute period ending at time listed.
 Day   Time   Solar   Ave.   Ave.  Ave.  Vector  Max.   Baro.   Total    
  of    of     Rad.   Air    Rel.  Wind   Wind   Wind  Press.  Precip.   
Year   Day            Temp.  Hum.  Speed  Dir.   Gust                    
2017   (PST)  Kw/m2    F      %     mph   deg.    mph    mb.     in.     
-------------------------------------------------------------------------
 351   12:20   0.52   61.5    17    5.2   254    12.0   978.9    0.00 
 351   12:30   0.53   61.7    16    6.3   266    13.0   978.9    0.00 
 351   12:40   0.52   62.1    16    3.1   239    12.1   978.8    0.00 
 351   12:50   0.51   62.1    16    5.5   249    10.2   978.7    0.00 
 351   13:00   0.50   62.4    16    5.3   267    10.4   978.7    0.00 
 351   13:10   0.49   62.6    16    4.3   256    11.0   978.6    0.00 
 351   13:20   0.47   63.4    16    3.5   256     8.2   978.6    0.00 
 351   13:30   0.46   63.7    15    4.5   230    14.0   978.6    0.00 
 351   13:40   0.44   63.0    16    6.7   249    11.8   978.5    0.00 
 351   13:50   0.42   63.5    15    3.5   268     9.8   978.4    0.00 
 351   14:00   0.40   63.6    15    5.5   251     9.5   978.4    0.00 
 351   14:10   0.38   63.2    16    5.9   266     9.3   978.6    0.00 
 351   14:20   0.35   63.6    16    4.0   270     9.3   978.6    0.00 
 351   14:30   0.33   63.7    15    4.6   256     7.5   978.7    0.00 
 351   14:40   0.31   64.3    15    3.3   339     7.7   978.7    0.00 
 351   14:50   0.28   63.9    15    4.0   286     8.9   978.8    0.00 
 351   15:00   0.25   64.1    15    3.8   240     8.6   978.8    0.00 
 351   15:10   0.22   64.1    15    3.9   212     7.6   979.0    0.00 
 351   15:20   0.19   63.8    15    3.7   211     9.0   979.0    0.00 
 351   15:30   0.14   63.4    15    3.6   255     7.3   979.0    0.00 
 351   15:40   0.03   62.6    16    3.6   252     8.3   979.1    0.00 
 351   15:50   0.03   62.3    16    3.1   203     8.9   979.1    0.00 
 351   16:00   0.03   62.0    16    3.3   217     5.4   979.1    0.00 
 351   16:10   0.02   61.6    17    2.1   237     5.0   979.1    0.00 
 351   16:20   0.01   61.3    17    3.2   205     6.5   979.2    0.00 
 351   16:30   0.01   61.1    17    5.0   216     8.1   979.3    0.00 
 351   16:40   0.00   60.9    17    4.3   222     7.1   979.3    0.00 
 351   16:50   0.00   60.8    17    5.6   214     7.7   979.5    0.00 
 351   17:00   0.00   60.4    18    6.7   211     8.6   979.6    0.00 
 351   17:10   0.00   60.5    18    7.7   218     9.6   979.9    0.00 
 351   17:20   0.00   60.2    18    7.0   218    10.4   980.1    0.00 
 351   17:30   0.00   60.1    18    7.0   208    10.7   980.2    0.00 
 351   17:40   0.00   59.7    18    7.2   213    11.0   980.2    0.00 
 351   17:50   0.00   59.6    18    8.1   220    11.0   980.2    0.00 
 351   18:00   0.00   59.0    18    8.3   199    11.5   980.3    0.00 
 351   18:10   0.00   58.5    19    6.9   199     9.9   980.4    0.00 
 351   18:20   0.00   58.2    19    6.7   209     9.1   980.6    0.00 
 351   18:30   0.00   58.5    19    8.3   214    10.9   980.8    0.00 
 351   18:40   0.00   58.8    19    9.0   212    12.7   980.9    0.00 
 351   18:50   0.00   58.7    18    8.6   206    12.1   981.0    0.00 
 351   19:00   0.00   58.4    18    8.9   216    12.7   981.1    0.00 
 351   19:10   0.00   58.3    18    7.7   220    12.1   981.2    0.00 
 351   19:20   0.00   58.4    18    9.7   216    14.8   981.2    0.00 
 351   19:30   0.00   58.6    18   10.0   218    14.2   981.3    0.00 
 351   19:40   0.00   58.7    18   10.7   223    16.4   981.4    0.00 
 351   19:50   0.00   58.7    18    9.3   228    13.7   981.4    0.00 
 351   20:00   0.00   58.3    18    8.3   218    12.7   981.6    0.00 
 351   20:10   0.00   58.4    18    9.4   228    13.2   981.6    0.00 
 351   20:20   0.00   58.0    18    8.7   216    12.1   981.6    0.00 
 351   20:30   0.00   58.2    18    8.8   226    12.8   981.7    0.00 
 351   20:40   0.00   58.1    18    9.7   219    14.3   981.7    0.00 
 351   20:50   0.00   57.7    19    9.8   210    16.4   981.7    0.00 
 351   21:00   0.00   57.8    18   10.2   210    15.8   981.8    0.00 
 351   21:10   0.00   57.9    18    9.6   224    13.5   981.8    0.00 
 351   21:20   0.00   58.4    18    9.8   222    14.5   981.8    0.00 
 351   21:30   0.00   58.8    18   10.2   220    15.6   981.9    0.00 
 351   21:40   0.00   58.2    18   10.5   215    16.7   982.0    0.00 
 351   21:50   0.00   57.9    18    9.2   230    15.1   982.1    0.00 
 351   22:00   0.00   58.2    18    9.6   221    15.3   982.2    0.00 
 351   22:10   0.00   58.2    18    7.8   221    11.8   982.3    0.00 
 351   22:20   0.00   58.0    18    8.9   222    13.1   982.3    0.00 
 351   22:30   0.00   58.1    18    6.6   229    10.7   982.4    0.00 
 351   22:40   0.00   58.3    18    8.8   221    14.8   982.5    0.00 
 351   22:50   0.00   58.0    18    9.0   204    12.3   982.6    0.00 
 351   23:00   0.00   58.0    18    8.8   206    13.4   982.6    0.00 
 351   23:10   0.00   57.7    18    7.9   211    12.5   982.7    0.00 
 351   23:20   0.00   58.1    18    8.7   214    12.9   982.7    0.00 
 351   23:30   0.00   58.0    18    9.1   212    13.0   982.7    0.00 
 351   23:40   0.00   57.5    18    9.2   215    14.2   982.6    0.00 
 351   23:50   0.00   57.3    18    9.0   215    13.7   982.7    0.00 
 352    0:00   0.00   57.7    18    9.7   210    12.7   982.7    0.00 
 352    0:10   0.00   57.6    18    8.2   203    10.7   982.8    0.00 
 352    0:20   0.00   57.7    18    9.1   205    13.0   982.8    0.00 
 352    0:30   0.00   57.2    18    7.1   214    11.3   982.8    0.00 
 352    0:40   0.00   57.4    18    5.9   227     9.6   982.8    0.00 
 352    0:50   0.00   57.5    18    6.5   238    11.0   982.8    0.00 
 352    1:00   0.00   57.6    18    5.1   241     9.3   982.9    0.00 
 352    1:10   0.00   57.3    18    6.2   232    11.3   982.9    0.00 
 352    1:20   0.00   58.3    17    7.3   217    10.7   983.0    0.00 
 352    1:30   0.00   58.6    17    7.0   218    10.6   983.1    0.00 
 352    1:40   0.00   57.8    17    7.3   215    10.6   983.1    0.00 
 352    1:50   0.00   57.8    17    9.5   210    13.9   983.2    0.00 
 352    2:00   0.00   58.0    17    9.9   210    15.0   983.3    0.00 
 352    2:10   0.00   57.8    18   10.4   211    14.0   983.3    0.00 
 352    2:20   0.00   57.6    18    8.9   209    13.7   983.4    0.00 
 352    2:30   0.00   57.5    18    9.3   210    13.0   983.4    0.00 
 352    2:40   0.00   57.5    18   10.8   207    15.3   983.3    0.00 
 352    2:50   0.00   57.7    18    9.4   214    12.8   983.3    0.00 
 352    3:00   0.00   58.1    17    9.7   216    13.1   983.3    0.00 
 352    3:10   0.00   57.7    18    9.8   215    13.4   983.4    0.00 
 352    3:20   0.00   57.7    18    9.6   206    13.4   983.4    0.00 
 352    3:30   0.00   57.6    18    9.8   209    13.9   983.5    0.00 
 352    3:40   0.00   57.9    17    8.0   221    12.8   983.6    0.00 
 352    3:50   0.00   57.8    17   10.1   220    13.8   983.5    0.00 
 352    4:00   0.00   57.8    17    7.9   205    13.7   983.6    0.00 
 352    4:10   0.00   57.6    18    8.0   217    11.9   983.6    0.00 
 352    4:20   0.00   57.8    17    7.6   213    12.5   983.6    0.00 
 352    4:30   0.00   57.3    18    6.5   218    10.9   983.6    0.00 
 352    4:40   0.00   57.8    17    5.2   239    10.3   983.7    0.00 
 352    4:50   0.00   57.1    18    5.9   207     9.1   983.8    0.00 
 352    5:00   0.00   57.2    18    6.3   213    12.0   983.9    0.00 
 352    5:10   0.00   57.4    18    5.6   210     9.3   983.9    0.00 
 352    5:20   0.00   56.8    18    5.0   204     8.8   983.9    0.00 
 352    5:30   0.00   57.1    18    5.2   217     8.8   984.0    0.00 
 352    5:40   0.00   57.0    18    5.9   219     9.9   984.0    0.00 
 352    5:50   0.00   57.1    18    6.3   204     9.1   983.9    0.00 
 352    6:00   0.00   57.3    17    5.9   211     8.8   983.9    0.00 
 352    6:10   0.00   57.5    17    6.6   225    10.0   984.0    0.00 
 352    6:20   0.00   57.1    17    5.9   209     8.6   984.1    0.00 
 352    6:30   0.00   57.1    17    6.0   216     8.6   984.2    0.00 
 352    6:40   0.00   57.0    17    6.2   212     9.9   984.4    0.00 
 352    6:50   0.00   57.0    17    7.1   222    14.4   984.5    0.00 
 352    7:00   0.01   57.6    17    8.3   216    12.1   984.7    0.00 
 352    7:10   0.01   57.5    17    9.1   217    13.0   984.8    0.00 
 352    7:20   0.01   57.5    17    8.6   213    14.0   984.8    0.00 
 352    7:30   0.01   57.5    17    8.8   211    12.3   984.9    0.00 
 352    7:40   0.01   57.7    17    9.4   207    14.4   984.9    0.00 
 352    7:50   0.03   57.5    17    8.7   209    12.8   984.9    0.00 
 352    8:00   0.04   57.7    17    9.8   217    14.9   985.0    0.00 
 352    8:10   0.19   58.7    16    8.2   210    12.7   985.0    0.00 
 352    8:20   0.23   60.0    16    6.7   202    10.4   985.0    0.00 
 352    8:30   0.26   61.1    15    4.2   182     6.6   985.1    0.00 
 352    8:40   0.28   62.0    14    0.9   212     3.0   985.2    0.00 
 352    8:50   0.31   62.3    14    2.1   354     5.0   985.4    0.00 
 352    9:00   0.34   62.5    14    1.4    15     2.9   985.5    0.00 
 352    9:10   0.36   64.2    13    0.4     3     2.1   985.6    0.00 
 352    9:20   0.39   64.2    13    1.1   144     3.0   985.8    0.00 
 352    9:30   0.41   64.3    13    3.7   176     5.0   985.8    0.00 
 352    9:40   0.43   64.1    13    2.8   188     3.9   985.7    0.00 
 352    9:50   0.45   66.1    12    0.9   177     2.0   985.7    0.00 
 352   10:00   0.47   66.2    12    0.4   149     1.2   985.6    0.00 
 352   10:10   0.48   67.6    12    0.4   147     1.5   985.6    0.00 
 352   10:20   0.50   66.3    12    2.3    23     5.3   985.7    0.00 
 352   10:30   0.51   65.3    12    3.1    22     5.2   985.7    0.00 
 352   10:40   0.53   65.1    12    3.5    11     6.5   985.5    0.00 
 352   10:50   0.54   65.4    12    2.9    13     5.7   985.3    0.00 
 352   11:00   0.54   65.5    12    3.6    43     5.9   985.1    0.00 
 352   11:10   0.56   65.8    12    2.2    60     4.5   984.9    0.00 
 352   11:20   0.56   66.7    12    1.7    47     4.8   984.7    0.00 
 352   11:30   0.56   67.0    12    2.8    31     5.7   984.5    0.00 
 352   11:40   0.57   66.5    12    3.9     0     6.9   984.4    0.00 
 352   11:50   0.57   67.0    12    2.6   353     6.6   984.2    0.00 
 352   12:00   0.56   67.2    12    3.5    35     6.1   984.1    0.00 
 352   12:10   0.56   67.0    12    3.3   357     6.1   984.0    0.00 

Return to Boyd Deep Canyon Reserve graphs page.


Western Regional Climate Center,wrcc@dri.edu